Pike, New York
Current Conditions -  °F | °C
As of 12:54 AM on Sunday 23 Nov 2014 (Local Time) from KDSV Reporting Station
Overcast Overcast  
Wind Chill: 40°   Ceiling: 4100
Heat Index: 45°   Visibility: 10mi
Dew Point: 39°   Wind: 9mph
Humidity: 80%   Direction: 110°ESE
Pressure: 30.03"   Gusts: NA
Location:  42.56°N, 78.15°W
Report Text: KDSV 230554Z AUTO 11008KT 10SM OVC041 07/04 A3003 RMK AO2 RAE31 SLP182 P0002 60007 T00720039 10072 20061 53001
Loading
Personal Weather Stations






























Interactive Weather Map New forecast layout! Learn more

10-Day Weather Forecast

Advertisements
Track Severe Weather on mobile